createdAt,value
2023-05-12T00:02:31.417Z,96855.88
2023-05-12T00:05:18.138Z,96850.72
2023-05-12T00:08:05.054Z,96857.13
2023-05-12T00:10:51.854Z,96857.13
2023-05-12T00:13:38.628Z,96853.88
2023-05-12T00:16:25.531Z,96849.53
2023-05-12T00:19:12.362Z,96849.53
2023-05-12T00:21:59.191Z,96845.22
2023-05-12T00:24:45.929Z,96850.56
2023-05-12T00:27:32.995Z,96846.84
2023-05-12T00:30:19.976Z,96848.72
2023-05-12T00:33:06.883Z,96841.72
2023-05-12T00:35:53.645Z,96842.53
2023-05-12T00:38:41.296Z,96836.56
2023-05-12T00:41:28.315Z,96837.44
2023-05-12T00:44:15.013Z,96841.13
2023-05-12T00:47:01.832Z,96837.44
2023-05-12T00:49:48.540Z,96840.31
2023-05-12T00:52:35.235Z,96836.00
2023-05-12T00:55:21.966Z,96836.00
2023-05-12T00:58:08.764Z,96834.13
2023-05-12T01:00:56.276Z,96832.72
2023-05-12T01:03:43.355Z,96830.25
2023-05-12T01:06:34.107Z,96831.31
2023-05-12T01:09:21.004Z,96824.53
2023-05-12T01:12:07.765Z,96832.75
2023-05-12T01:14:54.983Z,96840.78
2023-05-12T01:17:43.436Z,96834.59
2023-05-12T01:20:30.269Z,96834.59
2023-05-12T01:23:18.652Z,96831.94
2023-05-12T01:26:06.806Z,96834.84
2023-05-12T01:28:53.605Z,96843.91
2023-05-12T01:31:40.435Z,96836.06
2023-05-12T01:34:27.210Z,96837.94
2023-05-12T01:37:13.915Z,96840.00
2023-05-12T01:40:00.732Z,96839.41
2023-05-12T01:42:47.494Z,96839.59
2023-05-12T01:45:34.267Z,96834.25
2023-05-12T01:48:20.973Z,96827.28
2023-05-12T01:51:08.588Z,96827.91
2023-05-12T01:53:55.335Z,96837.53
2023-05-12T01:56:42.114Z,96832.19
2023-05-12T01:59:28.808Z,96840.22
2023-05-12T02:02:15.531Z,96829.28
2023-05-12T02:05:02.410Z,96839.19
2023-05-12T02:07:49.130Z,96838.78
2023-05-12T02:10:35.894Z,96833.91
2023-05-12T02:13:23.323Z,96835.72
2023-05-12T02:16:10.512Z,96837.00
2023-05-12T02:18:57.250Z,96833.50
2023-05-12T02:21:46.145Z,96829.38
2023-05-12T02:24:32.895Z,96834.50
2023-05-12T02:27:19.608Z,96834.50
2023-05-12T02:30:06.588Z,96831.41
2023-05-12T02:32:53.415Z,96829.78
2023-05-12T02:35:40.127Z,96826.50
2023-05-12T02:38:27.492Z,96833.94
2023-05-12T02:41:14.236Z,96821.56
2023-05-12T02:44:00.987Z,96827.78
2023-05-12T02:46:47.701Z,96824.25
2023-05-12T02:49:34.373Z,96821.56
2023-05-12T02:52:22.132Z,96821.81
2023-05-12T02:55:08.913Z,96815.41
2023-05-12T02:57:55.818Z,96820.75
2023-05-12T03:00:42.540Z,96821.56
2023-05-12T03:03:29.442Z,96814.59
2023-05-12T03:06:16.143Z,96818.50
2023-05-12T03:09:02.885Z,96818.34
2023-05-12T03:11:49.696Z,96813.66
2023-05-12T03:14:36.404Z,96822.50
2023-05-12T03:17:23.143Z,96825.38
2023-05-12T03:20:10.092Z,96827.84
2023-05-12T03:22:56.854Z,96835.25
2023-05-12T03:25:43.571Z,96823.16
2023-05-12T03:28:30.300Z,96828.91
2023-05-12T03:31:17.087Z,96832.00
2023-05-12T03:34:03.805Z,96824.41
2023-05-12T03:36:50.545Z,96831.63
2023-05-12T03:39:37.327Z,96826.88
2023-05-12T03:42:24.508Z,96817.41
2023-05-12T03:45:11.673Z,96812.66
2023-05-12T03:47:58.451Z,96819.44
2023-05-12T03:50:45.217Z,96819.44
2023-05-12T03:53:31.964Z,96815.94
2023-05-12T03:56:18.675Z,96813.28
2023-05-12T03:59:05.512Z,96819.44
2023-05-12T04:01:53.420Z,96818.38
2023-05-12T04:04:40.253Z,96811.19
2023-05-12T04:07:27.185Z,96816.53
2023-05-12T04:10:13.879Z,96810.16
2023-05-12T04:13:00.821Z,96815.53
2023-05-12T04:15:49.246Z,96820.88
2023-05-12T04:18:36.760Z,96821.69
2023-05-12T04:21:23.578Z,96821.69
2023-05-12T04:24:10.344Z,96830.13
2023-05-12T04:26:57.387Z,96833.84
2023-05-12T04:29:44.258Z,96840.41
2023-05-12T04:32:31.000Z,96841.66
2023-05-12T04:35:17.749Z,96845.38
2023-05-12T04:38:04.558Z,96850.09
2023-05-12T04:40:51.330Z,96848.06
2023-05-12T04:46:27.727Z,96843.16
2023-05-12T04:49:14.399Z,96849.31
2023-05-12T04:52:01.098Z,96848.72
2023-05-12T04:54:47.859Z,96851.81
2023-05-12T04:57:34.717Z,96854.91
2023-05-12T05:00:21.501Z,96849.56
2023-05-12T05:03:08.294Z,96852.47
2023-05-12T05:05:55.090Z,96850.59
2023-05-12T05:08:41.797Z,96866.63
2023-05-12T05:11:28.482Z,96859.03
2023-05-12T05:14:15.183Z,96854.72
2023-05-12T05:17:02.306Z,96861.53
2023-05-12T05:19:55.962Z,96862.53
2023-05-12T05:22:45.811Z,96862.75
2023-05-12T05:25:33.069Z,96870.16
2023-05-12T05:28:19.770Z,96867.72
2023-05-12T05:31:06.629Z,96875.09
2023-05-12T05:33:53.389Z,96875.09
2023-05-12T05:36:40.470Z,96875.72
2023-05-12T05:39:30.694Z,96877.34
2023-05-12T05:42:17.792Z,96884.78
2023-05-12T05:45:04.747Z,96879.84
2023-05-12T05:47:53.167Z,96878.00
2023-05-12T05:50:39.970Z,96886.63
2023-05-12T05:53:27.713Z,96886.81
2023-05-12T05:56:14.501Z,96884.38
2023-05-12T05:59:03.291Z,96891.34
2023-05-12T06:01:50.042Z,96896.47
2023-05-12T06:04:37.021Z,96901.22
2023-05-12T06:07:23.723Z,96896.69
2023-05-12T06:10:10.517Z,96902.25
2023-05-12T06:12:57.220Z,96899.59
2023-05-12T06:15:43.930Z,96905.94
2023-05-12T06:18:30.768Z,96910.06
2023-05-12T06:21:17.511Z,96916.84
2023-05-12T06:24:04.367Z,96909.00
2023-05-12T06:26:51.038Z,96907.16
2023-05-12T06:29:37.772Z,96917.44
2023-05-12T06:32:24.559Z,96924.22
2023-05-12T06:35:11.711Z,96919.28
2023-05-12T06:37:58.487Z,96923.16
2023-05-12T06:40:45.241Z,96924.38
2023-05-12T06:43:31.954Z,96933.03
2023-05-12T06:46:18.893Z,96925.81
2023-05-12T06:49:05.985Z,96932.78
2023-05-12T06:51:52.716Z,96921.91
2023-05-12T06:54:39.410Z,96927.25
2023-05-12T06:57:26.368Z,96931.56
2023-05-12T07:00:13.441Z,96929.47
2023-05-12T07:03:00.211Z,96930.31
2023-05-12T07:05:46.981Z,96934.63
2023-05-12T07:08:33.799Z,96935.22
2023-05-12T07:11:20.531Z,96936.66
2023-05-12T07:14:07.311Z,96936.47
2023-05-12T07:16:54.065Z,96932.75
2023-05-12T07:19:40.806Z,96936.03
2023-05-12T07:22:27.505Z,96938.50
2023-05-12T07:25:14.305Z,96935.59
2023-05-12T07:28:01.252Z,96935.59
2023-05-12T07:30:47.948Z,96930.88
2023-05-12T07:33:35.063Z,96941.34
2023-05-12T07:36:22.189Z,96936.81
2023-05-12T07:39:08.952Z,96945.66
2023-05-12T07:41:55.608Z,96944.66
2023-05-12T07:44:42.413Z,96941.75
2023-05-12T07:47:29.249Z,96943.19
2023-05-12T07:50:16.377Z,96945.25
2023-05-12T07:53:04.307Z,96939.53
2023-05-12T07:55:50.970Z,96947.94
2023-05-12T07:58:37.662Z,96953.50
2023-05-12T08:01:24.547Z,96947.50
2023-05-12T08:04:11.655Z,96952.44
2023-05-12T08:06:58.463Z,96957.78
2023-05-12T08:09:45.261Z,96947.91
2023-05-12T08:12:32.428Z,96956.94
2023-05-12T08:15:19.289Z,96956.13
2023-05-12T08:18:06.539Z,96953.47
2023-05-12T08:20:53.327Z,96946.47
2023-05-12T08:23:40.264Z,96947.50
2023-05-12T08:26:27.138Z,96953.66
2023-05-12T08:29:15.412Z,96954.69
2023-05-12T08:32:02.416Z,96948.53
2023-05-12T08:34:49.090Z,96956.75
2023-05-12T08:37:35.751Z,96954.69
2023-05-12T08:40:23.308Z,96952.03
2023-05-12T08:43:13.994Z,96959.22
2023-05-12T08:46:02.572Z,96958.19
2023-05-12T08:48:50.289Z,96964.34
2023-05-12T08:51:37.078Z,96956.34
2023-05-12T08:54:23.780Z,96964.97
2023-05-12T08:57:10.532Z,96957.78
2023-05-12T08:59:59.468Z,96959.41
2023-05-12T09:02:53.293Z,96967.44
2023-05-12T09:05:41.201Z,96965.38
2023-05-12T09:08:29.321Z,96969.91
2023-05-12T09:11:16.068Z,96968.88
2023-05-12T09:14:04.526Z,96967.81
2023-05-12T09:16:57.771Z,96969.50
2023-05-12T09:19:44.469Z,96964.72
2023-05-12T09:22:31.613Z,96970.69
2023-05-12T09:25:19.328Z,96968.63
2023-05-12T09:28:06.324Z,96969.25
2023-05-12T09:30:52.982Z,96970.06
2023-05-12T09:33:39.621Z,96970.66
2023-05-12T09:36:26.501Z,96961.63
2023-05-12T09:39:13.523Z,96964.28
2023-05-12T09:42:00.483Z,96972.91
2023-05-12T09:44:47.213Z,96971.03
2023-05-12T09:47:34.399Z,96975.16
2023-05-12T09:50:22.854Z,96970.84
2023-05-12T09:53:09.986Z,96970.84
2023-05-12T09:55:56.687Z,96966.31
2023-05-12T09:58:45.115Z,96979.47
2023-05-12T10:01:32.048Z,96964.25
2023-05-12T10:04:18.876Z,96972.06
2023-05-12T10:07:06.586Z,96978.22
2023-05-12T10:09:53.279Z,96978.03
2023-05-12T10:12:40.072Z,96970.00
2023-05-12T10:15:27.008Z,96968.16
2023-05-12T10:18:14.270Z,96968.97
2023-05-12T10:21:01.179Z,96975.13
2023-05-12T10:23:47.976Z,96969.78
2023-05-12T10:26:35.768Z,96968.97
2023-05-12T10:29:22.742Z,96974.09
2023-05-12T10:32:09.587Z,96976.56
2023-05-12T10:35:06.951Z,96970.41
2023-05-12T10:37:53.672Z,96965.88
2023-05-12T10:40:51.574Z,96971.81
2023-05-12T10:43:39.597Z,96978.19
2023-05-12T10:46:27.291Z,96988.47
2023-05-12T10:49:15.555Z,96998.13
2023-05-12T10:52:02.271Z,96997.09
2023-05-12T10:54:49.021Z,96992.59
2023-05-12T10:57:36.324Z,96992.38
2023-05-12T11:00:25.830Z,97006.56
2023-05-12T11:03:14.881Z,96997.50
2023-05-12T11:06:04.908Z,96995.44
2023-05-12T11:08:53.128Z,96994.38
2023-05-12T11:11:40.467Z,97004.09
2023-05-12T11:14:27.451Z,96995.81
2023-05-12T11:17:14.869Z,97000.38
2023-05-12T11:20:02.028Z,96996.66
2023-05-12T11:22:48.824Z,96997.47
2023-05-12T11:25:35.728Z,97006.09
2023-05-12T11:28:22.611Z,97000.75
2023-05-12T11:31:09.288Z,97004.25
2023-05-12T11:34:12.764Z,97004.25
2023-05-12T11:37:00.151Z,97006.69
2023-05-12T11:39:46.896Z,97016.00
2023-05-12T11:42:33.610Z,97000.16
2023-05-12T11:45:23.605Z,97010.88
2023-05-12T11:50:23.512Z,97019.56
2023-05-12T11:53:13.593Z,97022.03
2023-05-12T11:56:00.637Z,97021.63
2023-05-12T11:58:57.522Z,97022.84
2023-05-12T12:01:46.627Z,97025.69
2023-05-12T12:04:40.671Z,97022.59
2023-05-12T12:07:35.750Z,97028.34
2023-05-12T12:10:22.563Z,97029.78
2023-05-12T12:13:09.384Z,97029.31
2023-05-12T12:15:56.228Z,97033.47
2023-05-12T12:18:43.412Z,97034.09
2023-05-12T12:21:30.419Z,97028.31
2023-05-12T12:24:17.550Z,97034.47
2023-05-12T12:27:05.410Z,97040.66
2023-05-12T12:29:52.242Z,97036.94
2023-05-12T12:32:39.591Z,97042.91
2023-05-12T12:35:26.777Z,97043.50
2023-05-12T12:38:13.606Z,97045.97
2023-05-12T12:41:00.460Z,97044.94
2023-05-12T12:43:47.341Z,97051.91
2023-05-12T12:46:34.270Z,97052.72
2023-05-12T12:49:22.016Z,97047.19
2023-05-12T12:52:09.127Z,97048.81
2023-05-12T12:54:56.948Z,97052.31
2023-05-12T12:57:43.757Z,97050.44
2023-05-12T13:00:30.582Z,97050.66
2023-05-12T13:03:20.070Z,97056.41
2023-05-12T13:06:07.325Z,97060.97
2023-05-12T13:08:54.305Z,97051.28
2023-05-12T13:11:41.249Z,97062.00
2023-05-12T13:14:28.088Z,97049.44
2023-05-12T13:17:14.962Z,97052.94
2023-05-12T13:20:02.332Z,97052.09
2023-05-12T13:22:49.310Z,97053.97
2023-05-12T13:25:36.137Z,97051.06
2023-05-12T13:28:22.935Z,97050.03
2023-05-12T13:31:09.924Z,97050.03
2023-05-12T13:33:56.904Z,97056.00
2023-05-12T13:36:43.748Z,97052.28
2023-05-12T13:39:30.633Z,97051.47
2023-05-12T13:42:17.456Z,97052.03
2023-05-12T13:45:05.150Z,97055.56
2023-05-12T13:47:51.985Z,97053.72
2023-05-12T13:50:38.993Z,97058.84
2023-05-12T13:53:25.797Z,97056.16
2023-05-12T13:56:12.732Z,97063.75
2023-05-12T13:58:59.603Z,97058.63
2023-05-12T14:01:46.951Z,97054.09
2023-05-12T14:04:33.977Z,97060.28
2023-05-12T14:07:21.025Z,97065.41
2023-05-12T14:10:08.164Z,97063.75
2023-05-12T14:12:55.415Z,97064.38
2023-05-12T14:15:49.457Z,97059.03
2023-05-12T14:18:37.660Z,97059.03
2023-05-12T14:21:24.547Z,97055.50
2023-05-12T14:24:11.812Z,97058.19
2023-05-12T14:26:59.565Z,97063.34
2023-05-12T14:29:46.391Z,97056.94
2023-05-12T14:32:34.367Z,97057.38
2023-05-12T14:35:21.751Z,97059.03
2023-05-12T14:38:09.241Z,97060.03
2023-05-12T14:40:56.067Z,97071.56
2023-05-12T14:43:42.923Z,97066.84
2023-05-12T14:46:29.796Z,97068.69
2023-05-12T14:49:20.649Z,97073.00
2023-05-12T14:52:08.290Z,97069.28
2023-05-12T14:54:55.273Z,97073.00
2023-05-12T14:57:42.148Z,97066.03
2023-05-12T15:00:28.967Z,97072.19
2023-05-12T15:03:16.500Z,97068.69
2023-05-12T15:06:06.996Z,97071.97
2023-05-12T15:08:54.340Z,97072.59
2023-05-12T15:11:44.489Z,97074.22
2023-05-12T15:14:31.324Z,97070.94
2023-05-12T15:17:18.493Z,97069.91
2023-05-12T15:20:06.782Z,97080.38
2023-05-12T15:22:54.454Z,97073.19
2023-05-12T15:25:41.856Z,97073.19
2023-05-12T15:28:28.686Z,97078.75
2023-05-12T15:31:15.706Z,97077.72
2023-05-12T15:34:03.007Z,97074.22
2023-05-12T15:36:50.884Z,97079.38
2023-05-12T15:39:37.704Z,97075.66
2023-05-12T15:42:30.103Z,97078.31
2023-05-12T15:45:19.804Z,97069.47
2023-05-12T15:48:08.780Z,97066.81
2023-05-12T15:50:56.572Z,97065.97
2023-05-12T15:53:43.474Z,97064.94
2023-05-12T15:56:30.387Z,97058.53
2023-05-12T15:59:17.297Z,97050.31
2023-05-12T16:02:04.167Z,97047.81
2023-05-12T16:04:51.052Z,97056.91
2023-05-12T16:07:38.773Z,97054.22
2023-05-12T16:10:25.610Z,97054.00
2023-05-12T16:13:13.758Z,97055.44
2023-05-12T16:16:01.091Z,97056.88
2023-05-12T16:18:47.978Z,97054.78
2023-05-12T16:21:34.882Z,97053.97
2023-05-12T16:24:21.889Z,97044.06
2023-05-12T16:27:08.835Z,97042.22
2023-05-12T16:29:55.727Z,97043.25
2023-05-12T16:32:42.658Z,97046.16
2023-05-12T16:35:29.445Z,97049.66
2023-05-12T16:38:16.385Z,97049.41
2023-05-12T16:41:03.219Z,97054.78
2023-05-12T16:43:50.025Z,97051.50
2023-05-12T16:46:37.729Z,97053.16
2023-05-12T16:49:26.092Z,97046.75
2023-05-12T16:52:14.768Z,97047.34
2023-05-12T16:55:01.583Z,97050.63
2023-05-12T16:57:48.402Z,97050.03
2023-05-12T17:00:35.247Z,97043.88
2023-05-12T17:03:22.881Z,97044.44
2023-05-12T17:06:09.845Z,97053.31
2023-05-12T17:08:56.638Z,97057.84
2023-05-12T17:11:43.461Z,97055.78
2023-05-12T17:14:30.832Z,97056.81
2023-05-12T17:17:17.645Z,97055.78
2023-05-12T17:20:06.027Z,97060.09
2023-05-12T17:22:53.379Z,97060.09
2023-05-12T17:25:40.236Z,97060.72
2023-05-12T17:28:27.494Z,97071.19
2023-05-12T17:31:14.347Z,97060.72
2023-05-12T17:34:01.212Z,97066.25
2023-05-12T17:36:48.588Z,97060.53
2023-05-12T17:39:35.981Z,97069.59
2023-05-12T17:42:23.154Z,97069.00
2023-05-12T17:45:10.586Z,97066.34
2023-05-12T17:47:57.417Z,97074.16
2023-05-12T17:50:44.316Z,97074.16
2023-05-12T17:53:31.833Z,97083.22
2023-05-12T17:56:18.739Z,97086.72
2023-05-12T17:59:05.551Z,97084.84
2023-05-12T18:01:52.497Z,97086.72
2023-05-12T18:04:39.833Z,97093.94
2023-05-12T18:07:27.156Z,97088.59
2023-05-12T18:10:14.202Z,97089.97
2023-05-12T18:13:00.985Z,97089.16
2023-05-12T18:15:49.014Z,97093.47
2023-05-12T18:18:35.881Z,97104.44
2023-05-12T18:21:22.887Z,97107.09
2023-05-12T18:24:09.720Z,97104.44
2023-05-12T18:26:56.538Z,97109.78
2023-05-12T18:29:43.481Z,97114.31
2023-05-12T18:32:31.548Z,97114.91
2023-05-12T18:35:19.705Z,97109.56
2023-05-12T18:38:07.535Z,97109.78
2023-05-12T18:40:54.412Z,97119.44
2023-05-12T18:43:43.041Z,97118.03
2023-05-12T18:46:29.863Z,97121.34
2023-05-12T18:49:16.730Z,97124.09
2023-05-12T18:52:03.999Z,97129.25
2023-05-12T18:54:50.938Z,97136.22
2023-05-12T18:57:37.842Z,97129.03
2023-05-12T19:00:27.490Z,97142.44
2023-05-12T19:03:14.372Z,97137.09
2023-05-12T19:06:01.467Z,97147.56
2023-05-12T19:08:48.375Z,97144.06
2023-05-12T19:11:35.244Z,97144.88
2023-05-12T19:14:22.538Z,97154.56
2023-05-12T19:17:09.656Z,97155.81
2023-05-12T19:19:56.496Z,97168.38
2023-05-12T19:22:44.061Z,97165.28
2023-05-12T19:25:31.320Z,97167.16
2023-05-12T19:28:18.120Z,97169.81
2023-05-12T19:31:05.009Z,97167.56
2023-05-12T19:33:52.014Z,97167.16
2023-05-12T19:36:39.051Z,97174.00
2023-05-12T19:39:25.845Z,97167.81
2023-05-12T19:42:12.656Z,97169.91
2023-05-12T19:45:00.565Z,97167.00
2023-05-12T19:47:47.458Z,97167.81
2023-05-12T19:50:34.325Z,97154.66
2023-05-12T19:53:21.525Z,97150.34
2023-05-12T19:56:08.304Z,97161.88
2023-05-12T19:58:55.183Z,97161.06
2023-05-12T20:01:42.090Z,97165.38
2023-05-12T20:04:28.963Z,97164.97
2023-05-12T20:07:15.836Z,97158.16
2023-05-12T20:10:03.156Z,97168.06
2023-05-12T20:12:50.047Z,97171.16
2023-05-12T20:15:36.986Z,97169.53
2023-05-12T20:18:24.002Z,97153.47
2023-05-12T20:21:10.896Z,97161.50
2023-05-12T20:23:57.819Z,97166.22
2023-05-12T20:26:44.690Z,97168.31
2023-05-12T20:29:31.530Z,97164.19
2023-05-12T20:32:18.424Z,97157.63
2023-05-12T20:35:05.688Z,97158.00
2023-05-12T20:37:52.649Z,97158.22
2023-05-12T20:40:40.500Z,97155.53
2023-05-12T20:43:27.511Z,97154.50
2023-05-12T20:46:14.359Z,97154.69
2023-05-12T20:49:02.822Z,97151.19
2023-05-12T20:51:49.633Z,97152.47
2023-05-12T20:54:36.490Z,97144.84
2023-05-12T20:57:23.392Z,97150.41
2023-05-12T21:00:11.220Z,97147.31
2023-05-12T21:02:58.664Z,97151.84
2023-05-12T21:05:48.228Z,97147.75
2023-05-12T21:08:35.074Z,97155.16
2023-05-12T21:11:22.308Z,97143.03
2023-05-12T21:14:09.171Z,97142.19
2023-05-12T21:16:56.006Z,97147.78
2023-05-12T21:19:44.047Z,97151.47
2023-05-12T21:22:31.231Z,97144.88
2023-05-12T21:25:18.078Z,97147.78
2023-05-12T21:28:05.275Z,97154.16
2023-05-12T21:30:52.059Z,97146.34
2023-05-12T21:33:38.908Z,97153.53
2023-05-12T21:36:25.768Z,97150.06
2023-05-12T21:39:12.636Z,97149.00
2023-05-12T21:41:59.919Z,97145.75
2023-05-12T21:44:50.462Z,97146.75
2023-05-12T21:47:37.329Z,97152.50
2023-05-12T21:50:24.139Z,97153.78
2023-05-12T21:53:11.051Z,97156.84
2023-05-12T21:55:58.091Z,97147.38
2023-05-12T21:58:44.906Z,97154.59
2023-05-12T22:01:31.788Z,97155.41
2023-05-12T22:04:18.667Z,97147.59
2023-05-12T22:07:06.038Z,97154.19
2023-05-12T22:09:52.919Z,97154.19
2023-05-12T22:12:40.596Z,97151.91
2023-05-12T22:15:27.537Z,97155.84
2023-05-12T22:18:14.568Z,97158.13
2023-05-12T22:21:01.384Z,97158.13
2023-05-12T22:23:48.268Z,97163.47
2023-05-12T22:26:35.066Z,97158.31
2023-05-12T22:29:21.915Z,97157.72
2023-05-12T22:32:08.783Z,97157.88
2023-05-12T22:34:55.997Z,97156.25
2023-05-12T22:37:43.183Z,97158.28
2023-05-12T22:40:30.650Z,97152.34
2023-05-12T22:43:17.929Z,97148.00
2023-05-12T22:46:07.644Z,97146.19
2023-05-12T22:48:54.515Z,97140.22
2023-05-12T22:51:41.304Z,97148.44
2023-05-12T22:54:28.095Z,97150.09
2023-05-12T22:57:15.275Z,97147.81
2023-05-12T23:00:02.095Z,97149.03
2023-05-12T23:02:48.984Z,97149.25
2023-05-12T23:05:35.945Z,97150.31
2023-05-12T23:08:22.835Z,97148.63
2023-05-12T23:11:09.787Z,97143.50
2023-05-12T23:13:56.571Z,97127.47
2023-05-12T23:16:43.516Z,97132.00
2023-05-12T23:19:30.439Z,97132.19
2023-05-12T23:22:17.231Z,97137.53
2023-05-12T23:25:04.206Z,97127.88
2023-05-12T23:27:51.083Z,97122.53
2023-05-12T23:30:37.936Z,97120.91
2023-05-12T23:33:24.865Z,97121.94
2023-05-12T23:36:13.465Z,97114.91
2023-05-12T23:39:00.404Z,97111.84
2023-05-12T23:41:47.199Z,97113.69
2023-05-12T23:44:34.057Z,97114.72
2023-05-12T23:47:21.076Z,97108.34
2023-05-12T23:50:08.618Z,97107.53
2023-05-12T23:52:56.454Z,97109.56
2023-05-12T23:55:43.257Z,97114.31
2023-05-12T23:58:30.080Z,97119.66
